createdAt,value
2022-10-05T00:04:47.945Z,24.63
2022-10-05T00:07:16.840Z,29.40
2022-10-05T00:09:45.589Z,25.30
2022-10-05T00:15:22.982Z,24.17
2022-10-05T00:17:50.140Z,27.85
2022-10-05T00:20:27.070Z,25.88
2022-10-05T00:22:58.701Z,22.42
2022-10-05T00:25:26.092Z,22.40
2022-10-05T00:28:00.731Z,21.83
2022-10-05T00:30:34.685Z,27.65
2022-10-05T00:33:01.715Z,24.83
2022-10-05T00:35:30.741Z,25.00
2022-10-05T00:37:57.845Z,24.92
2022-10-05T00:40:36.913Z,24.13
2022-10-05T00:43:06.731Z,26.50
2022-10-05T00:45:36.488Z,27.13
2022-10-05T00:48:03.564Z,26.88
2022-10-05T00:50:39.726Z,25.58
2022-10-05T00:53:12.880Z,27.77
2022-10-05T00:55:58.532Z,26.70
2022-10-05T00:58:40.983Z,31.05
2022-10-05T01:01:28.447Z,34.40
2022-10-05T01:04:14.442Z,31.77
2022-10-05T01:06:50.732Z,28.67
2022-10-05T01:09:37.688Z,30.27
2022-10-05T01:12:07.789Z,32.90
2022-10-05T01:14:47.165Z,25.15
2022-10-05T01:17:20.406Z,25.02
2022-10-05T01:19:47.468Z,21.08
2022-10-05T01:22:14.492Z,26.30
2022-10-05T01:24:50.632Z,26.88
2022-10-05T01:27:35.962Z,22.08
2022-10-05T01:30:17.472Z,20.75
2022-10-05T01:32:49.186Z,20.77
2022-10-05T01:35:26.814Z,21.13
2022-10-05T01:37:53.823Z,21.90
2022-10-05T01:40:23.872Z,21.55
2022-10-05T01:42:56.779Z,24.85
2022-10-05T01:45:28.315Z,24.58
2022-10-05T01:48:01.283Z,21.85
2022-10-05T01:50:28.379Z,19.27
2022-10-05T01:53:04.606Z,22.98
2022-10-05T01:55:50.583Z,19.67
2022-10-05T01:58:29.013Z,19.33
2022-10-05T02:01:01.503Z,19.58
2022-10-05T02:06:05.061Z,20.20
2022-10-05T02:08:38.387Z,19.75
2022-10-05T02:11:09.422Z,25.30
2022-10-05T02:13:41.298Z,24.23
2022-10-05T02:16:10.921Z,22.75
2022-10-05T02:18:44.694Z,22.23
2022-10-05T02:21:11.755Z,21.88
2022-10-05T02:23:40.252Z,23.83
2022-10-05T02:26:07.820Z,23.88
2022-10-05T02:29:10.313Z,25.73
2022-10-05T02:31:43.803Z,21.17
2022-10-05T02:34:20.913Z,23.63
2022-10-05T02:36:50.109Z,22.48
2022-10-05T02:39:21.561Z,21.08
2022-10-05T02:41:54.198Z,21.83
2022-10-05T02:46:57.243Z,40.08
2022-10-05T02:49:51.251Z,36.38
2022-10-05T02:52:38.752Z,35.40
2022-10-05T02:55:13.689Z,31.98
2022-10-05T02:57:47.121Z,35.20
2022-10-05T03:00:15.922Z,26.35
2022-10-05T03:02:52.370Z,26.63
2022-10-05T03:05:32.460Z,26.75
2022-10-05T03:08:02.444Z,24.58
2022-10-05T03:10:55.934Z,31.50
2022-10-05T03:13:38.236Z,25.92
2022-10-05T03:16:20.544Z,29.88
2022-10-05T03:19:06.245Z,34.40
2022-10-05T03:21:48.590Z,41.10
2022-10-05T03:24:24.979Z,44.05
2022-10-05T03:27:01.374Z,43.90
2022-10-05T03:29:34.418Z,38.63
2022-10-05T03:32:08.711Z,36.85
2022-10-05T03:34:45.316Z,37.08
2022-10-05T03:37:18.651Z,39.83
2022-10-05T03:39:50.439Z,34.00
2022-10-05T03:42:20.561Z,32.58
2022-10-05T03:44:56.968Z,31.88
2022-10-05T03:47:33.226Z,31.90
2022-10-05T03:50:10.125Z,27.48
2022-10-05T03:52:39.614Z,30.10
2022-10-05T03:55:06.907Z,30.08
2022-10-05T03:57:35.759Z,29.08
2022-10-05T04:00:05.799Z,31.98
2022-10-05T04:02:32.889Z,36.45
2022-10-05T04:05:03.230Z,30.08
2022-10-05T04:07:49.186Z,31.75
2022-10-05T04:10:42.591Z,33.15
2022-10-05T04:13:15.690Z,30.00
2022-10-05T04:16:01.552Z,30.95
2022-10-05T04:18:31.808Z,27.05
2022-10-05T04:21:02.108Z,31.05
2022-10-05T04:23:34.874Z,36.38
2022-10-05T04:26:05.027Z,33.58
2022-10-05T04:28:51.319Z,30.00
2022-10-05T04:31:27.665Z,22.45
2022-10-05T04:34:00.361Z,27.55
2022-10-05T04:39:03.656Z,27.70
2022-10-05T04:41:49.682Z,25.98
2022-10-05T04:44:32.052Z,29.67
2022-10-05T04:47:11.425Z,34.50
2022-10-05T04:49:41.538Z,26.77
2022-10-05T04:52:11.864Z,30.40
2022-10-05T04:54:38.923Z,25.90
2022-10-05T04:57:13.293Z,34.53
2022-10-05T04:59:58.703Z,24.80
2022-10-05T05:02:40.763Z,32.63
2022-10-05T05:05:23.403Z,30.25
2022-10-05T05:07:56.110Z,37.42
2022-10-05T05:13:18.646Z,26.65
2022-10-05T05:15:46.969Z,23.75
2022-10-05T05:18:46.288Z,23.00
2022-10-05T05:21:25.536Z,25.30
2022-10-05T05:24:01.827Z,26.17
2022-10-05T05:26:42.498Z,25.02
2022-10-05T05:29:09.591Z,21.60
2022-10-05T05:31:36.696Z,22.65
2022-10-05T05:34:09.972Z,26.42
2022-10-05T05:36:46.610Z,23.23
2022-10-05T05:39:21.793Z,28.65
2022-10-05T05:42:07.738Z,20.73
2022-10-05T05:44:43.080Z,20.73
2022-10-05T05:47:19.781Z,31.90
2022-10-05T05:49:49.852Z,23.20
2022-10-05T05:52:19.781Z,21.50
2022-10-05T05:55:01.741Z,22.60
2022-10-05T05:57:49.988Z,22.70
2022-10-05T06:00:21.101Z,24.63
2022-10-05T06:02:52.286Z,35.67
2022-10-05T06:05:28.622Z,21.00
2022-10-05T06:07:56.542Z,25.52
2022-10-05T06:10:35.852Z,25.40
2022-10-05T06:13:07.168Z,23.48
2022-10-05T06:15:54.135Z,20.85
2022-10-05T06:18:22.468Z,31.88
2022-10-05T06:21:00.228Z,31.92
2022-10-05T06:23:30.387Z,20.95
2022-10-05T06:26:15.661Z,25.92
2022-10-05T06:28:43.240Z,28.88
2022-10-05T06:31:19.704Z,30.05
2022-10-05T06:33:51.544Z,28.92
2022-10-05T06:36:21.667Z,34.08
2022-10-05T06:38:49.471Z,34.60
2022-10-05T06:41:33.110Z,27.92
2022-10-05T06:44:07.692Z,30.30
2022-10-05T06:46:34.728Z,27.70
2022-10-05T06:49:04.645Z,28.90
2022-10-05T06:51:34.698Z,35.20
2022-10-05T06:54:26.447Z,27.90
2022-10-05T06:57:13.181Z,31.00
2022-10-05T06:59:54.025Z,28.70
2022-10-05T07:02:35.385Z,29.17
2022-10-05T07:05:11.556Z,26.70
2022-10-05T07:08:04.972Z,33.35
2022-10-05T07:10:34.147Z,28.90
2022-10-05T07:13:07.337Z,32.05
2022-10-05T07:15:46.505Z,27.13
2022-10-05T07:18:19.739Z,27.55
2022-10-05T07:21:05.234Z,28.77
2022-10-05T07:23:50.851Z,30.92
2022-10-05T07:26:36.754Z,32.88
2022-10-05T07:29:10.680Z,30.88
2022-10-05T07:31:50.524Z,29.23
2022-10-05T07:34:20.787Z,24.67
2022-10-05T07:37:06.475Z,30.33
2022-10-05T07:39:59.092Z,27.50
2022-10-05T07:42:48.827Z,29.70
2022-10-05T07:45:18.018Z,31.40
2022-10-05T07:47:50.968Z,27.48
2022-10-05T07:50:21.118Z,26.80
2022-10-05T07:52:55.926Z,23.25
2022-10-05T07:55:27.352Z,25.65
2022-10-05T07:57:54.450Z,24.58
2022-10-05T08:00:26.016Z,24.40
2022-10-05T08:02:56.345Z,22.48
2022-10-05T08:05:26.460Z,22.17
2022-10-05T08:08:14.324Z,24.98
2022-10-05T08:10:49.166Z,20.33
2022-10-05T08:13:23.033Z,18.38
2022-10-05T08:15:55.520Z,17.70
2022-10-05T08:18:22.721Z,15.40
2022-10-05T08:20:56.754Z,15.70
2022-10-05T08:23:26.559Z,16.35
2022-10-05T08:26:03.087Z,16.33
2022-10-05T08:28:36.547Z,14.10
2022-10-05T08:31:06.823Z,13.65
2022-10-05T08:33:53.209Z,12.52
2022-10-05T08:36:42.076Z,12.85
2022-10-05T08:39:13.593Z,11.75
2022-10-05T08:41:59.204Z,12.25
2022-10-05T08:44:41.494Z,11.90
2022-10-05T08:47:28.028Z,13.13
2022-10-05T08:50:14.342Z,11.35
2022-10-05T08:52:47.517Z,11.77
2022-10-05T08:55:27.416Z,12.23
2022-10-05T08:58:07.205Z,12.18
2022-10-05T09:01:00.664Z,11.15
2022-10-05T09:03:44.079Z,11.73
2022-10-05T09:06:19.649Z,10.60
2022-10-05T09:08:46.736Z,10.98
2022-10-05T09:11:20.438Z,9.65
2022-10-05T09:13:51.542Z,9.23
2022-10-05T09:16:18.743Z,10.38
2022-10-05T09:18:46.020Z,11.43
2022-10-05T09:21:15.872Z,12.05
2022-10-05T09:23:47.818Z,12.65
2022-10-05T09:26:33.918Z,12.20
2022-10-05T09:29:19.292Z,11.75
2022-10-05T09:31:49.619Z,12.52
2022-10-05T09:34:35.616Z,13.10
2022-10-05T09:37:08.748Z,13.35
2022-10-05T09:39:57.850Z,14.15
2022-10-05T09:42:54.599Z,12.63
2022-10-05T09:45:27.845Z,11.40
2022-10-05T09:47:54.946Z,12.82
2022-10-05T09:50:51.976Z,12.35
2022-10-05T09:53:40.765Z,13.27
2022-10-05T09:56:26.276Z,12.50
2022-10-05T09:59:00.011Z,11.63
2022-10-05T10:02:22.178Z,11.25
2022-10-05T10:05:08.002Z,11.13
2022-10-05T10:07:38.173Z,9.02
2022-10-05T10:10:08.419Z,8.63
2022-10-05T10:13:06.838Z,8.07
2022-10-05T10:15:38.288Z,6.97
2022-10-05T10:18:15.133Z,8.23
2022-10-05T10:20:42.255Z,7.97
2022-10-05T10:23:24.634Z,7.35
2022-10-05T10:26:04.126Z,7.07
2022-10-05T10:28:43.270Z,5.88
2022-10-05T10:31:22.514Z,5.53
2022-10-05T10:34:08.088Z,5.22
2022-10-05T10:36:54.189Z,5.05
2022-10-05T10:39:50.828Z,4.50
2022-10-05T10:42:22.592Z,4.63
2022-10-05T10:44:58.963Z,5.40
2022-10-05T10:47:44.254Z,5.18
2022-10-05T10:50:11.351Z,5.18
2022-10-05T10:53:02.855Z,5.45
2022-10-05T10:55:35.871Z,4.57
2022-10-05T10:58:23.663Z,4.50
2022-10-05T11:01:22.049Z,4.53
2022-10-05T11:03:52.125Z,4.82
2022-10-05T11:06:25.065Z,5.60
2022-10-05T11:08:55.290Z,4.65
2022-10-05T11:11:28.560Z,4.10
2022-10-05T11:14:05.666Z,3.92
2022-10-05T11:16:48.701Z,4.78
2022-10-05T11:19:20.450Z,3.97
2022-10-05T11:22:02.989Z,4.18
2022-10-05T11:24:42.598Z,3.92
2022-10-05T11:27:15.873Z,4.13
2022-10-05T11:29:45.881Z,3.90
2022-10-05T11:32:35.224Z,3.90
2022-10-05T11:35:24.522Z,4.07
2022-10-05T11:38:06.608Z,3.47
2022-10-05T11:40:39.624Z,4.38
2022-10-05T11:43:25.140Z,4.05
2022-10-05T11:46:15.347Z,4.25
2022-10-05T11:48:48.424Z,4.15
2022-10-05T11:51:18.306Z,4.30
2022-10-05T11:54:05.184Z,4.40
2022-10-05T11:56:38.222Z,4.00
2022-10-05T11:59:20.856Z,4.28
2022-10-05T12:02:00.271Z,3.80
2022-10-05T12:04:37.354Z,3.83
2022-10-05T12:07:24.041Z,3.90
2022-10-05T12:10:21.188Z,3.22
2022-10-05T12:12:51.808Z,4.00
2022-10-05T12:15:31.911Z,3.97
2022-10-05T12:17:59.018Z,3.67
2022-10-05T12:20:32.725Z,3.90
2022-10-05T12:23:04.208Z,3.25
2022-10-05T12:25:40.305Z,3.47
2022-10-05T12:28:11.572Z,2.90
2022-10-05T12:30:53.946Z,2.80
2022-10-05T12:33:30.149Z,2.67
2022-10-05T12:36:04.357Z,2.60
2022-10-05T12:38:44.190Z,2.85
2022-10-05T12:41:36.466Z,3.08
2022-10-05T12:44:16.023Z,3.15
2022-10-05T12:46:54.996Z,3.10
2022-10-05T12:49:34.413Z,2.83
2022-10-05T12:52:14.577Z,3.20
2022-10-05T12:54:51.479Z,2.67
2022-10-05T12:57:42.762Z,2.70
2022-10-05T13:00:09.913Z,2.70
2022-10-05T13:02:47.797Z,2.40
2022-10-05T13:05:19.222Z,2.58
2022-10-05T13:07:58.516Z,2.70
2022-10-05T13:10:28.000Z,2.55
2022-10-05T13:13:01.083Z,2.85
2022-10-05T13:15:30.565Z,2.92
2022-10-05T13:18:22.965Z,2.70
2022-10-05T13:20:50.083Z,2.85
2022-10-05T13:23:31.412Z,2.53
2022-10-05T13:26:07.850Z,2.83
2022-10-05T13:28:41.443Z,2.30
2022-10-05T13:31:28.818Z,3.55
2022-10-05T13:33:59.042Z,2.38
2022-10-05T13:36:26.191Z,3.15
2022-10-05T13:39:04.211Z,2.50
2022-10-05T13:44:16.584Z,2.92
2022-10-05T13:46:49.495Z,3.08
2022-10-05T13:49:22.038Z,2.80
2022-10-05T13:52:08.743Z,2.63
2022-10-05T13:54:59.753Z,2.72
2022-10-05T13:57:45.119Z,2.88
2022-10-05T14:00:18.775Z,3.05
2022-10-05T14:02:52.586Z,2.30
2022-10-05T14:05:22.155Z,2.95
2022-10-05T14:07:50.974Z,2.72
2022-10-05T14:10:34.125Z,3.58
2022-10-05T14:13:02.139Z,3.60
2022-10-05T14:15:30.871Z,3.42
2022-10-05T14:17:57.997Z,4.05
2022-10-05T14:20:26.980Z,3.40
2022-10-05T14:23:01.762Z,2.83
2022-10-05T14:25:30.059Z,3.17
2022-10-05T14:28:12.718Z,3.35
2022-10-05T14:33:15.266Z,3.00
2022-10-05T14:35:50.233Z,3.33
2022-10-05T14:38:49.802Z,3.42
2022-10-05T14:41:27.660Z,3.83
2022-10-05T14:44:06.803Z,3.40
2022-10-05T14:46:36.447Z,3.42
2022-10-05T14:49:17.206Z,3.47
2022-10-05T14:51:44.490Z,3.80
2022-10-05T14:54:29.313Z,3.15
2022-10-05T14:57:09.996Z,4.03
2022-10-05T14:59:37.359Z,3.45
2022-10-05T15:02:20.020Z,3.45
2022-10-05T15:07:14.119Z,3.38
2022-10-05T15:09:56.566Z,3.38
2022-10-05T15:12:35.085Z,3.40
2022-10-05T15:15:25.587Z,3.30
2022-10-05T15:17:55.978Z,3.03
2022-10-05T16:32:06.362Z,3.38
2022-10-05T16:34:36.437Z,3.25
2022-10-05T16:37:03.528Z,3.63
2022-10-05T16:39:33.385Z,3.95
2022-10-05T16:44:27.462Z,4.05
2022-10-05T16:51:10.200Z,4.18
2022-10-05T16:53:51.754Z,4.30
2022-10-05T17:03:28.580Z,4.55
2022-10-05T17:06:57.456Z,4.50
2022-10-05T17:10:17.645Z,5.15
2022-10-05T17:13:43.792Z,5.10
2022-10-05T17:25:44.573Z,4.85
2022-10-05T17:28:40.825Z,5.65
2022-10-05T17:33:59.797Z,6.25
2022-10-05T17:36:44.126Z,6.43
2022-10-05T17:39:14.425Z,4.50
2022-10-05T17:41:41.486Z,4.30
2022-10-05T17:44:19.522Z,4.43
2022-10-05T17:46:47.817Z,3.70
2022-10-05T17:49:33.461Z,4.18
2022-10-05T17:52:21.236Z,4.75
2022-10-05T17:55:08.585Z,4.35
2022-10-05T17:57:36.858Z,4.10
2022-10-05T18:00:31.437Z,3.63
2022-10-05T18:02:58.647Z,3.58
2022-10-05T18:05:27.790Z,3.33
2022-10-05T18:08:13.215Z,2.97
2022-10-05T18:11:00.317Z,2.83
2022-10-05T18:13:45.421Z,2.72
2022-10-05T18:16:13.609Z,3.30
2022-10-05T18:18:44.210Z,2.90
2022-10-05T18:21:16.624Z,2.60
2022-10-05T18:24:01.284Z,2.35
2022-10-05T18:26:52.395Z,2.70
2022-10-05T18:29:53.438Z,2.20
2022-10-05T18:32:23.311Z,2.17
2022-10-05T18:35:01.978Z,2.00
2022-10-05T18:37:47.242Z,2.08
2022-10-05T18:40:24.002Z,1.85
2022-10-05T18:43:05.656Z,2.50
2022-10-05T18:45:38.684Z,2.40
2022-10-05T18:48:14.956Z,2.10
2022-10-05T18:50:49.213Z,2.17
2022-10-05T18:53:23.211Z,2.03
2022-10-05T18:56:05.657Z,2.50
2022-10-05T18:58:37.131Z,2.80
2022-10-05T19:01:22.808Z,3.40
2022-10-05T19:04:04.636Z,3.13
2022-10-05T19:07:11.512Z,3.50
2022-10-05T19:09:49.389Z,3.10
2022-10-05T19:12:38.098Z,3.42
2022-10-05T19:15:16.602Z,3.30
2022-10-05T19:17:52.751Z,3.33
2022-10-05T19:20:22.944Z,3.17
2022-10-05T19:23:09.391Z,3.00
2022-10-05T19:25:39.094Z,3.00
2022-10-05T19:28:22.370Z,2.83
2022-10-05T19:31:09.274Z,3.05
2022-10-05T19:33:36.447Z,2.92
2022-10-05T19:36:21.796Z,2.80
2022-10-05T19:38:51.714Z,2.92
2022-10-05T19:41:22.580Z,2.42
2022-10-05T19:44:03.543Z,2.65
2022-10-05T19:46:30.800Z,3.03
2022-10-05T19:49:00.086Z,3.47
2022-10-05T19:51:31.756Z,2.92
2022-10-05T19:54:03.051Z,3.00
2022-10-05T19:56:35.053Z,3.05
2022-10-05T19:59:13.193Z,2.83
2022-10-05T20:01:40.627Z,3.25
2022-10-05T20:04:09.403Z,2.67
2022-10-05T20:06:39.299Z,3.80
2022-10-05T20:09:19.931Z,3.15
2022-10-05T20:11:51.400Z,3.15
2022-10-05T20:14:20.059Z,2.90
2022-10-05T20:17:05.848Z,3.00
2022-10-05T20:19:35.730Z,3.20
2022-10-05T20:22:21.251Z,3.15
2022-10-05T20:24:52.143Z,3.05
2022-10-05T20:27:38.051Z,2.97
2022-10-05T20:30:06.075Z,4.93
2022-10-05T20:32:33.141Z,4.53
2022-10-05T20:35:00.480Z,4.82
2022-10-05T20:37:27.602Z,4.85
2022-10-05T20:39:54.747Z,3.13
2022-10-05T20:42:23.893Z,3.70
2022-10-05T20:44:56.499Z,3.67
2022-10-05T20:47:24.159Z,3.75
2022-10-05T20:49:53.307Z,3.25
2022-10-05T20:52:20.453Z,3.42
2022-10-05T20:54:47.944Z,3.22
2022-10-05T20:57:15.078Z,3.83
2022-10-05T20:59:42.188Z,3.30
2022-10-05T21:02:11.369Z,2.90
2022-10-05T21:04:41.476Z,3.10
2022-10-05T21:07:09.003Z,2.92
2022-10-05T21:09:38.268Z,3.60
2022-10-05T21:12:05.560Z,3.47
2022-10-05T21:14:34.466Z,2.97
2022-10-05T21:17:02.101Z,2.90
2022-10-05T21:19:29.509Z,3.60
2022-10-05T21:21:59.561Z,3.47
2022-10-05T21:24:26.740Z,3.20
2022-10-05T21:26:56.703Z,2.90
2022-10-05T21:29:23.822Z,3.22
2022-10-05T21:31:51.154Z,3.20
2022-10-05T21:34:18.358Z,3.45
2022-10-05T21:36:45.475Z,3.15
2022-10-05T21:39:12.561Z,3.78
2022-10-05T21:41:39.636Z,3.30
2022-10-05T21:44:06.966Z,4.32
2022-10-05T21:46:35.825Z,4.65
2022-10-05T21:49:03.066Z,4.10
2022-10-05T21:51:30.193Z,3.95
2022-10-05T21:54:05.404Z,3.75
2022-10-05T21:56:35.962Z,3.42
2022-10-05T21:59:07.207Z,3.85
2022-10-05T22:01:35.907Z,3.90
2022-10-05T22:04:03.756Z,3.78
2022-10-05T22:06:31.107Z,3.55
2022-10-05T22:08:58.729Z,4.25
2022-10-05T22:11:26.269Z,4.10
2022-10-05T22:13:53.884Z,4.00
2022-10-05T22:16:22.293Z,4.05
2022-10-05T22:18:49.602Z,4.65
2022-10-05T22:21:16.970Z,4.38
2022-10-05T22:23:45.950Z,3.53
2022-10-05T22:26:14.112Z,3.63
2022-10-05T22:28:42.625Z,3.42
2022-10-05T22:31:10.235Z,4.60
2022-10-05T22:33:37.373Z,3.90
2022-10-05T22:36:04.996Z,3.35
2022-10-05T22:38:32.185Z,4.28
2022-10-05T22:41:01.329Z,4.13
2022-10-05T22:43:28.924Z,4.68
2022-10-05T22:45:56.363Z,4.82
2022-10-05T22:48:23.783Z,4.80
2022-10-05T22:50:50.791Z,4.57
2022-10-05T22:53:17.892Z,4.20
2022-10-05T22:55:45.112Z,4.25
2022-10-05T22:58:12.271Z,4.30
2022-10-05T23:00:57.692Z,4.30
2022-10-05T23:03:25.808Z,4.22
2022-10-05T23:06:03.638Z,4.20
2022-10-05T23:08:34.272Z,4.30
2022-10-05T23:11:17.390Z,4.80
2022-10-05T23:14:21.753Z,4.95
2022-10-05T23:16:48.993Z,4.57
2022-10-05T23:19:16.182Z,4.45
2022-10-05T23:21:43.509Z,4.97
2022-10-05T23:24:10.734Z,4.40
2022-10-05T23:26:37.840Z,4.65
2022-10-05T23:29:05.015Z,5.22
2022-10-05T23:31:33.406Z,4.40
2022-10-05T23:34:00.506Z,5.38
2022-10-05T23:36:32.124Z,4.90
2022-10-05T23:38:59.959Z,4.78
2022-10-05T23:41:27.058Z,4.63
2022-10-05T23:43:57.008Z,4.85
2022-10-05T23:46:24.133Z,5.00
2022-10-05T23:48:53.233Z,5.38
2022-10-05T23:51:20.401Z,4.88
2022-10-05T23:53:47.541Z,5.88
2022-10-05T23:56:14.699Z,5.38
2022-10-05T23:58:41.889Z,5.28
